createdAt,value
2022-09-06T00:00:44.413Z,7.28
2022-09-06T00:01:46.871Z,7.30
2022-09-06T00:02:49.675Z,7.31
2022-09-06T00:03:52.646Z,7.33
2022-09-06T00:04:55.280Z,7.34
2022-09-06T00:05:57.950Z,7.38
2022-09-06T00:07:01.436Z,7.40
2022-09-06T00:08:04.006Z,7.41
2022-09-06T00:09:06.570Z,7.44
2022-09-06T00:10:09.558Z,7.46
2022-09-06T00:11:12.159Z,7.49
2022-09-06T00:12:14.788Z,7.50
2022-09-06T00:13:17.347Z,7.53
2022-09-06T00:14:19.915Z,7.53
2022-09-06T00:15:22.497Z,7.55
2022-09-06T00:16:30.354Z,7.57
2022-09-06T00:17:32.374Z,7.57
2022-09-06T00:18:35.242Z,7.60
2022-09-06T00:19:37.927Z,7.63
2022-09-06T00:20:40.753Z,7.63
2022-09-06T00:21:43.786Z,7.64
2022-09-06T00:22:46.494Z,7.63
2022-09-06T00:23:50.707Z,7.65
2022-09-06T00:24:53.395Z,7.65
2022-09-06T00:25:56.043Z,7.64
2022-09-06T00:26:59.023Z,7.63
2022-09-06T00:28:01.689Z,7.62
2022-09-06T00:29:05.615Z,7.63
2022-09-06T00:30:09.969Z,7.62
2022-09-06T00:31:13.670Z,7.61
2022-09-06T00:32:16.823Z,7.59
2022-09-06T00:33:19.439Z,7.62
2022-09-06T00:34:22.059Z,7.58
2022-09-06T00:35:29.615Z,7.55
2022-09-06T00:36:33.595Z,7.51
2022-09-06T00:37:36.247Z,7.49
2022-09-06T00:38:38.927Z,7.47
2022-09-06T00:39:50.548Z,7.44
2022-09-06T00:40:53.475Z,7.43
2022-09-06T00:42:00.688Z,7.40
2022-09-06T00:43:04.264Z,7.38
2022-09-06T00:44:07.221Z,7.34
2022-09-06T00:45:10.297Z,7.31
2022-09-06T00:46:14.364Z,7.28
2022-09-06T00:47:17.026Z,7.23
2022-09-06T00:48:22.571Z,7.20
2022-09-06T00:49:25.487Z,7.17
2022-09-06T00:50:28.493Z,7.13
2022-09-06T00:51:31.757Z,7.10
2022-09-06T00:52:34.272Z,7.08
2022-09-06T00:53:37.297Z,7.05
2022-09-06T00:54:40.155Z,7.03
2022-09-06T00:55:42.725Z,7.03
2022-09-06T00:56:45.709Z,6.98
2022-09-06T00:57:48.371Z,6.96
2022-09-06T00:58:50.937Z,6.94
2022-09-06T00:59:53.439Z,6.94
2022-09-06T01:00:56.276Z,6.94
2022-09-06T01:01:59.178Z,6.97
2022-09-06T01:03:02.026Z,6.93
2022-09-06T01:04:05.414Z,6.90
2022-09-06T01:05:08.383Z,6.86
2022-09-06T01:06:13.825Z,6.85
2022-09-06T01:07:16.594Z,6.83
2022-09-06T01:08:19.258Z,6.82
2022-09-06T01:09:21.925Z,6.81
2022-09-06T01:10:25.725Z,6.81
2022-09-06T01:11:29.621Z,6.81
2022-09-06T01:12:32.860Z,6.82
2022-09-06T01:13:35.879Z,6.79
2022-09-06T01:14:38.764Z,6.78
2022-09-06T01:15:41.453Z,6.77
2022-09-06T01:16:44.405Z,6.75
2022-09-06T01:17:46.971Z,6.73
2022-09-06T01:18:49.555Z,6.70
2022-09-06T01:19:52.104Z,6.72
2022-09-06T01:20:55.111Z,6.67
2022-09-06T01:21:58.012Z,6.65
2022-09-06T01:23:00.722Z,6.63
2022-09-06T01:24:03.291Z,6.61
2022-09-06T01:25:05.884Z,6.59
2022-09-06T01:26:09.348Z,6.58
2022-09-06T01:27:11.912Z,6.56
2022-09-06T01:28:14.584Z,6.53
2022-09-06T01:29:17.255Z,6.51
2022-09-06T01:30:20.026Z,6.51
2022-09-06T01:31:22.925Z,6.50
2022-09-06T01:32:25.777Z,6.48
2022-09-06T01:33:28.445Z,6.46
2022-09-06T01:34:31.032Z,6.45
2022-09-06T01:35:33.575Z,6.43
2022-09-06T01:36:45.758Z,6.40
2022-09-06T01:37:40.967Z,6.37
2022-09-06T01:38:43.732Z,6.34
2022-09-06T01:39:46.269Z,6.32
2022-09-06T01:40:49.902Z,6.28
2022-09-06T01:41:52.665Z,6.28
2022-09-06T01:42:55.740Z,6.28
2022-09-06T01:43:58.314Z,6.26
2022-09-06T01:45:01.033Z,6.23
2022-09-06T01:46:04.143Z,6.20
2022-09-06T01:47:07.028Z,6.19
2022-09-06T01:48:09.656Z,6.17
2022-09-06T01:49:12.775Z,6.15
2022-09-06T01:50:17.152Z,6.12
2022-09-06T01:51:19.756Z,6.10
2022-09-06T01:52:22.324Z,6.10
2022-09-06T01:53:24.988Z,6.09
2022-09-06T01:54:27.519Z,6.08
2022-09-06T01:55:30.131Z,6.09
2022-09-06T01:56:33.162Z,6.08
2022-09-06T01:57:35.768Z,6.08
2022-09-06T01:58:38.444Z,6.06
2022-09-06T01:59:40.968Z,6.06
2022-09-06T02:00:43.884Z,6.06
2022-09-06T02:01:46.612Z,6.06
2022-09-06T02:02:49.568Z,6.06
2022-09-06T02:03:52.192Z,6.07
2022-09-06T02:04:54.819Z,6.07
2022-09-06T02:05:57.328Z,6.10
2022-09-06T02:07:00.202Z,6.09
2022-09-06T02:08:02.776Z,6.10
2022-09-06T02:09:05.436Z,6.12
2022-09-06T02:10:08.655Z,6.09
2022-09-06T02:11:11.287Z,6.09
2022-09-06T02:12:13.856Z,6.08
2022-09-06T02:13:16.419Z,6.12
2022-09-06T02:14:19.092Z,6.11
2022-09-06T02:15:21.759Z,6.14
2022-09-06T02:16:24.882Z,6.13
2022-09-06T02:17:27.508Z,6.14
2022-09-06T02:18:30.079Z,6.13
2022-09-06T02:19:32.645Z,6.12
2022-09-06T02:20:35.623Z,6.13
2022-09-06T02:21:39.378Z,6.10
2022-09-06T02:22:42.392Z,6.12
2022-09-06T02:23:45.467Z,6.11
2022-09-06T02:24:48.139Z,6.15
2022-09-06T02:25:50.722Z,6.15
2022-09-06T02:26:53.683Z,6.15
2022-09-06T02:27:56.665Z,6.13
2022-09-06T02:28:59.327Z,6.16
2022-09-06T02:30:01.899Z,6.15
2022-09-06T02:31:04.612Z,6.15
2022-09-06T02:32:07.352Z,6.15
2022-09-06T02:33:09.866Z,6.14
2022-09-06T02:34:13.745Z,6.17
2022-09-06T02:35:16.374Z,6.17
2022-09-06T02:36:19.550Z,6.21
2022-09-06T02:37:22.177Z,6.20
2022-09-06T02:38:24.835Z,6.17
2022-09-06T02:39:27.396Z,6.13
2022-09-06T02:40:30.590Z,6.13
2022-09-06T02:41:33.210Z,6.13
2022-09-06T02:42:35.798Z,6.12
2022-09-06T02:43:39.059Z,6.14
2022-09-06T02:44:41.734Z,6.17
2022-09-06T02:45:45.600Z,6.17
2022-09-06T02:46:48.406Z,6.11
2022-09-06T02:47:51.090Z,6.08
2022-09-06T02:48:53.731Z,6.09
2022-09-06T02:49:56.396Z,6.08
2022-09-06T02:50:59.372Z,6.08
2022-09-06T02:52:02.040Z,6.05
2022-09-06T02:53:05.741Z,6.03
2022-09-06T02:54:08.417Z,6.01
2022-09-06T02:55:11.085Z,6.00
2022-09-06T02:56:14.560Z,5.99
2022-09-06T02:57:17.127Z,5.99
2022-09-06T02:58:19.911Z,6.01
2022-09-06T02:59:22.619Z,5.97
2022-09-06T03:00:25.758Z,5.97
2022-09-06T03:01:28.438Z,5.99
2022-09-06T03:02:31.159Z,5.98
2022-09-06T03:03:33.868Z,5.96
2022-09-06T03:04:36.432Z,5.94
2022-09-06T03:05:38.992Z,5.93
2022-09-06T03:06:42.175Z,5.92
2022-09-06T03:07:45.065Z,5.91
2022-09-06T03:08:47.616Z,5.91
2022-09-06T03:09:50.488Z,5.91
2022-09-06T03:10:53.506Z,5.88
2022-09-06T03:11:56.170Z,5.90
2022-09-06T03:12:59.117Z,5.88
2022-09-06T03:14:01.779Z,5.87
2022-09-06T03:15:04.347Z,5.86
2022-09-06T03:16:07.457Z,5.85
2022-09-06T03:17:10.118Z,5.88
2022-09-06T03:18:12.683Z,5.88
2022-09-06T03:19:15.341Z,5.87
2022-09-06T03:20:19.843Z,5.87
2022-09-06T03:21:22.931Z,5.85
2022-09-06T03:22:26.519Z,5.86
2022-09-06T03:23:30.211Z,5.86
2022-09-06T03:24:32.879Z,5.86
2022-09-06T03:25:35.442Z,5.85
2022-09-06T03:26:38.421Z,5.83
2022-09-06T03:27:41.089Z,5.85
2022-09-06T03:28:43.763Z,5.87
2022-09-06T03:29:46.327Z,5.88
2022-09-06T03:30:49.798Z,5.92
2022-09-06T03:31:52.686Z,5.92
2022-09-06T03:32:55.218Z,5.97
2022-09-06T03:33:57.921Z,6.00
2022-09-06T03:35:00.591Z,6.08
2022-09-06T03:36:03.366Z,6.18
2022-09-06T03:37:05.973Z,6.33
2022-09-06T03:38:08.559Z,6.45
2022-09-06T03:39:11.427Z,6.54
2022-09-06T03:40:14.959Z,6.62
2022-09-06T03:41:17.692Z,6.63
2022-09-06T03:42:20.902Z,6.61
2022-09-06T03:43:23.486Z,6.63
2022-09-06T03:44:26.004Z,6.62
2022-09-06T03:45:28.616Z,6.63
2022-09-06T03:46:31.550Z,6.64
2022-09-06T03:47:34.156Z,6.66
2022-09-06T03:48:36.678Z,6.67
2022-09-06T03:49:39.605Z,6.69
2022-09-06T03:50:42.577Z,6.77
2022-09-06T03:51:45.158Z,6.80
2022-09-06T03:52:47.814Z,6.83
2022-09-06T03:53:50.400Z,6.87
2022-09-06T03:56:18.055Z,6.92
2022-09-06T03:58:48.950Z,7.01
2022-09-06T03:59:51.579Z,7.06
2022-09-06T04:00:54.560Z,7.08
2022-09-06T04:01:57.258Z,7.11
2022-09-06T04:03:01.908Z,7.19
2022-09-06T04:04:04.394Z,7.27
2022-09-06T04:05:07.041Z,7.30
2022-09-06T04:06:10.952Z,7.36
2022-09-06T04:07:13.919Z,7.40
2022-09-06T04:08:16.757Z,7.42
2022-09-06T04:09:19.477Z,7.48
2022-09-06T04:10:23.186Z,7.51
2022-09-06T04:11:25.877Z,7.56
2022-09-06T04:12:28.619Z,7.57
2022-09-06T04:13:31.455Z,7.64
2022-09-06T04:14:34.235Z,7.71
2022-09-06T04:15:36.911Z,7.77
2022-09-06T04:16:39.936Z,7.80
2022-09-06T04:17:42.798Z,7.81
2022-09-06T04:18:45.441Z,7.86
2022-09-06T04:19:48.133Z,7.93
2022-09-06T04:20:51.294Z,7.96
2022-09-06T04:21:54.679Z,8.05
2022-09-06T04:22:57.654Z,8.08
2022-09-06T04:24:00.332Z,8.10
2022-09-06T04:25:02.995Z,8.16
2022-09-06T04:26:05.974Z,8.25
2022-09-06T04:27:08.745Z,8.34
2022-09-06T04:28:11.342Z,8.37
2022-09-06T04:29:13.973Z,8.42
2022-09-06T04:30:18.490Z,8.50
2022-09-06T04:31:21.201Z,8.60
2022-09-06T04:32:24.344Z,8.68
2022-09-06T04:33:27.028Z,8.71
2022-09-06T04:34:29.781Z,8.76
2022-09-06T04:35:32.511Z,8.77
2022-09-06T04:36:35.427Z,8.81
2022-09-06T04:37:38.094Z,8.85
2022-09-06T04:38:41.289Z,8.93
2022-09-06T04:39:43.989Z,9.02
2022-09-06T04:40:46.919Z,9.09
2022-09-06T04:41:49.489Z,9.18
2022-09-06T04:42:52.466Z,9.27
2022-09-06T04:43:55.136Z,9.40
2022-09-06T04:44:57.789Z,9.44
2022-09-06T04:46:00.519Z,9.56
2022-09-06T04:47:06.280Z,9.66
2022-09-06T04:48:07.835Z,9.67
2022-09-06T04:49:10.925Z,9.67
2022-09-06T04:50:15.349Z,9.73
2022-09-06T04:51:17.907Z,9.69
2022-09-06T04:52:20.580Z,9.71
2022-09-06T04:53:23.361Z,9.75
2022-09-06T04:54:26.588Z,9.79
2022-09-06T04:55:29.266Z,9.90
2022-09-06T04:56:34.761Z,9.98
2022-09-06T04:57:42.041Z,10.06
2022-09-06T04:58:42.349Z,10.16
2022-09-06T04:59:45.107Z,10.28
2022-09-06T05:00:50.797Z,10.37
2022-09-06T05:01:57.493Z,10.35
2022-09-06T05:03:00.496Z,10.42
2022-09-06T05:04:03.160Z,10.53
2022-09-06T05:05:06.240Z,10.61
2022-09-06T05:06:11.271Z,10.66
2022-09-06T05:07:14.974Z,10.75
2022-09-06T05:08:18.654Z,10.90
2022-09-06T05:09:21.326Z,10.87
2022-09-06T05:10:24.841Z,10.85
2022-09-06T05:11:27.464Z,10.83
2022-09-06T05:12:30.172Z,10.90
2022-09-06T05:13:33.423Z,10.98
2022-09-06T05:14:36.093Z,11.06
2022-09-06T05:15:38.857Z,11.08
2022-09-06T05:16:41.743Z,11.11
2022-09-06T05:17:44.412Z,11.20
2022-09-06T05:18:46.961Z,11.26
2022-09-06T05:19:49.581Z,11.33
2022-09-06T05:20:52.306Z,11.41
2022-09-06T05:21:54.872Z,11.46
2022-09-06T05:22:58.074Z,11.53
2022-09-06T05:24:00.590Z,11.60
2022-09-06T05:25:03.487Z,11.60
2022-09-06T05:26:08.669Z,11.67
2022-09-06T05:27:11.282Z,11.71
2022-09-06T05:28:13.848Z,11.75
2022-09-06T05:29:16.578Z,11.79
2022-09-06T05:30:20.722Z,11.79
2022-09-06T05:31:23.331Z,11.85
2022-09-06T05:32:26.394Z,11.92
2022-09-06T05:33:30.182Z,11.96
2022-09-06T05:34:32.675Z,12.07
2022-09-06T05:35:36.424Z,12.04
2022-09-06T05:36:40.542Z,12.10
2022-09-06T05:37:43.436Z,12.16
2022-09-06T05:38:46.797Z,12.19
2022-09-06T05:39:49.536Z,12.25
2022-09-06T05:40:53.672Z,12.22
2022-09-06T05:41:56.547Z,12.24
2022-09-06T05:42:59.524Z,12.25
2022-09-06T05:44:02.504Z,12.31
2022-09-06T05:45:05.158Z,12.36
2022-09-06T05:46:08.236Z,12.48
2022-09-06T05:47:11.111Z,12.55
2022-09-06T05:48:13.637Z,12.58
2022-09-06T05:49:16.452Z,12.63
2022-09-06T05:50:20.658Z,12.73
2022-09-06T05:51:23.326Z,12.79
2022-09-06T05:52:25.952Z,12.84
2022-09-06T05:53:28.559Z,12.90
2022-09-06T05:54:31.012Z,13.01
2022-09-06T05:55:33.796Z,13.16
2022-09-06T05:56:36.626Z,13.29
2022-09-06T05:57:39.256Z,13.45
2022-09-06T05:58:41.907Z,13.67
2022-09-06T05:59:44.477Z,13.80
2022-09-06T06:00:47.648Z,13.99
2022-09-06T06:01:50.402Z,14.03
2022-09-06T06:02:53.403Z,14.03
2022-09-06T06:03:56.070Z,14.15
2022-09-06T06:04:58.643Z,14.22
2022-09-06T06:06:01.306Z,14.27
2022-09-06T06:07:03.891Z,14.34
2022-09-06T06:08:06.962Z,14.43
2022-09-06T06:09:09.518Z,14.48
2022-09-06T06:10:12.561Z,14.56
2022-09-06T06:11:15.191Z,14.64
2022-09-06T06:12:17.836Z,14.77
2022-09-06T06:13:20.410Z,14.92
2022-09-06T06:14:22.969Z,15.03
2022-09-06T06:15:25.907Z,15.11
2022-09-06T06:16:29.246Z,15.18
2022-09-06T06:17:31.903Z,15.15
2022-09-06T06:18:34.614Z,15.14
2022-09-06T06:19:37.234Z,15.16
2022-09-06T06:20:40.215Z,15.21
2022-09-06T06:21:42.779Z,15.21
2022-09-06T06:22:45.550Z,15.25
2022-09-06T06:23:48.120Z,15.28
2022-09-06T06:24:50.613Z,15.33
2022-09-06T06:25:53.250Z,15.43
2022-09-06T06:26:56.227Z,15.53
2022-09-06T06:27:58.798Z,15.65
2022-09-06T06:29:01.920Z,15.64
2022-09-06T06:30:05.197Z,15.60
2022-09-06T06:31:08.035Z,15.58
2022-09-06T06:32:10.619Z,15.63
2022-09-06T06:33:13.484Z,15.58
2022-09-06T06:34:16.101Z,15.54
2022-09-06T06:35:18.711Z,15.44
2022-09-06T06:36:22.720Z,15.35
2022-09-06T06:37:25.383Z,15.25
2022-09-06T06:38:28.085Z,15.33
2022-09-06T06:39:30.855Z,15.37
2022-09-06T06:40:34.003Z,15.37
2022-09-06T06:41:36.637Z,15.26
2022-09-06T06:42:39.243Z,15.40
2022-09-06T06:43:42.281Z,15.44
2022-09-06T06:44:44.835Z,15.53
2022-09-06T06:45:47.430Z,15.61
2022-09-06T06:46:50.636Z,15.68
2022-09-06T06:47:53.254Z,15.73
2022-09-06T06:48:55.884Z,15.81
2022-09-06T06:49:58.530Z,15.91
2022-09-06T06:51:01.285Z,16.03
2022-09-06T06:52:03.879Z,16.28
2022-09-06T06:53:06.554Z,16.56
2022-09-06T06:54:09.319Z,16.82
2022-09-06T06:55:11.979Z,17.00
2022-09-06T06:56:15.574Z,17.10
2022-09-06T06:57:18.197Z,17.30
2022-09-06T06:58:20.847Z,17.45
2022-09-06T06:59:23.475Z,17.13
2022-09-06T07:00:28.352Z,16.89
2022-09-06T07:01:31.525Z,17.20
2022-09-06T07:02:34.354Z,17.39
2022-09-06T07:03:37.030Z,17.59
2022-09-06T07:04:39.548Z,17.64
2022-09-06T07:07:51.282Z,18.39
2022-09-06T07:08:53.955Z,18.62
2022-09-06T07:11:01.442Z,19.10
2022-09-06T07:12:03.937Z,19.39
2022-09-06T07:13:06.471Z,19.55
2022-09-06T07:14:09.143Z,19.45
2022-09-06T07:15:11.712Z,19.46
2022-09-06T07:16:15.286Z,19.41
2022-09-06T07:17:18.169Z,19.28
2022-09-06T07:18:20.694Z,19.27
2022-09-06T07:20:28.315Z,19.18
2022-09-06T07:21:38.851Z,19.15
2022-09-06T07:22:35.819Z,19.06
2022-09-06T07:24:42.775Z,18.65
2022-09-06T07:25:45.392Z,18.43
2022-09-06T07:27:52.602Z,18.38
2022-09-06T07:28:55.483Z,18.30
2022-09-06T07:29:58.088Z,18.22
2022-09-06T07:31:01.480Z,18.18
2022-09-06T07:32:11.553Z,17.94
2022-09-06T07:33:08.686Z,17.88
2022-09-06T07:34:11.292Z,17.67
2022-09-06T07:35:13.998Z,17.66
2022-09-06T07:36:17.209Z,17.67
2022-09-06T07:37:19.801Z,17.85
2022-09-06T07:38:22.371Z,17.78
2022-09-06T07:39:24.950Z,17.60
2022-09-06T07:40:28.567Z,17.42
2022-09-06T07:41:31.548Z,17.33
2022-09-06T07:42:36.226Z,17.27
2022-09-06T07:43:38.624Z,17.28
2022-09-06T07:44:41.157Z,17.22
2022-09-06T07:45:43.858Z,17.17
2022-09-06T07:46:47.136Z,17.34
2022-09-06T07:47:57.109Z,17.62
2022-09-06T07:48:54.554Z,17.75
2022-09-06T07:51:01.874Z,18.08
2022-09-06T07:53:11.311Z,18.41
2022-09-06T07:54:29.749Z,18.50
2022-09-06T07:55:17.721Z,18.65
2022-09-06T07:56:20.647Z,19.08
2022-09-06T07:57:23.255Z,19.24
2022-09-06T07:58:25.859Z,19.52
2022-09-06T07:59:28.517Z,19.39
2022-09-06T08:00:31.272Z,19.67
2022-09-06T08:01:33.934Z,19.25
2022-09-06T08:02:36.537Z,18.73
2022-09-06T08:03:39.127Z,18.51
2022-09-06T08:04:41.736Z,18.28
2022-09-06T08:08:58.622Z,18.57
2022-09-06T08:10:02.047Z,18.51
2022-09-06T08:11:04.921Z,18.49
2022-09-06T08:12:07.673Z,18.31
2022-09-06T08:13:10.369Z,18.03
2022-09-06T08:14:13.035Z,18.06
2022-09-06T08:15:15.696Z,18.03
2022-09-06T08:16:19.653Z,18.04
2022-09-06T08:17:22.597Z,17.88
2022-09-06T08:18:25.348Z,17.83
2022-09-06T08:19:27.912Z,18.00
2022-09-06T08:20:30.884Z,18.14
2022-09-06T08:21:33.853Z,18.21
2022-09-06T08:22:36.493Z,18.16
2022-09-06T08:23:39.104Z,18.19
2022-09-06T08:24:41.725Z,18.21
2022-09-06T08:25:44.260Z,18.09
2022-09-06T08:26:47.208Z,18.04
2022-09-06T08:27:49.801Z,17.89
2022-09-06T08:28:52.429Z,17.74
2022-09-06T08:29:55.220Z,17.70
2022-09-06T08:30:57.896Z,17.63
2022-09-06T08:32:00.592Z,17.47
2022-09-06T08:33:03.223Z,17.19
2022-09-06T08:34:05.819Z,17.12
2022-09-06T08:35:08.466Z,16.94
2022-09-06T08:36:11.900Z,16.91
2022-09-06T08:37:15.029Z,16.91
2022-09-06T08:38:17.700Z,16.92
2022-09-06T08:39:20.267Z,16.87
2022-09-06T08:40:24.083Z,16.75
2022-09-06T08:41:26.691Z,16.67
2022-09-06T08:42:29.400Z,16.49
2022-09-06T08:43:32.068Z,16.39
2022-09-06T08:45:39.208Z,16.24
2022-09-06T08:46:42.888Z,16.08
2022-09-06T08:47:45.820Z,16.12
2022-09-06T08:48:48.853Z,15.90
2022-09-06T08:49:51.465Z,15.98
2022-09-06T08:50:54.749Z,15.97
2022-09-06T08:51:57.416Z,16.12
2022-09-06T08:53:16.066Z,16.26
2022-09-06T08:54:04.763Z,16.35
2022-09-06T08:55:07.783Z,16.13
2022-09-06T08:56:12.088Z,16.20
2022-09-06T08:57:14.662Z,16.15
2022-09-06T08:58:17.326Z,16.12
2022-09-06T08:59:20.117Z,16.10
2022-09-06T09:00:24.103Z,16.07
2022-09-06T09:01:26.972Z,16.05
2022-09-06T09:02:29.996Z,16.06
2022-09-06T09:03:32.875Z,16.06
2022-09-06T09:04:35.493Z,15.91
2022-09-06T09:05:38.164Z,15.76
2022-09-06T09:06:41.239Z,15.74
2022-09-06T09:07:44.211Z,15.84
2022-09-06T09:08:46.837Z,15.87
2022-09-06T09:09:49.480Z,15.97
2022-09-06T09:10:52.523Z,16.08
2022-09-06T09:11:55.104Z,15.97
2022-09-06T09:12:57.793Z,16.10
2022-09-06T09:14:00.399Z,16.07
2022-09-06T09:15:02.996Z,16.06
2022-09-06T09:16:05.704Z,15.99
2022-09-06T09:17:08.552Z,15.87
2022-09-06T09:18:11.207Z,15.70
2022-09-06T09:19:13.784Z,15.61
2022-09-06T09:20:17.164Z,15.50
2022-09-06T09:21:20.135Z,15.42
2022-09-06T09:22:22.765Z,15.34
2022-09-06T09:23:25.436Z,15.23
2022-09-06T09:24:28.010Z,15.12
2022-09-06T09:25:30.645Z,15.07
2022-09-06T09:26:33.800Z,14.99
2022-09-06T09:27:36.459Z,14.93
2022-09-06T09:28:38.985Z,14.87
2022-09-06T09:29:41.631Z,14.89
2022-09-06T09:31:48.778Z,15.04
2022-09-06T09:32:51.443Z,15.14
2022-09-06T09:33:54.011Z,15.23
2022-09-06T09:34:56.581Z,15.29
2022-09-06T09:35:59.145Z,15.34
2022-09-06T09:38:09.510Z,15.33
2022-09-06T09:39:11.045Z,15.37
2022-09-06T09:40:14.668Z,15.44
2022-09-06T09:41:17.514Z,15.52
2022-09-06T09:42:20.269Z,15.55
2022-09-06T09:43:22.857Z,15.59
2022-09-06T09:44:25.517Z,15.72
2022-09-06T09:45:28.183Z,15.79
2022-09-06T09:46:32.242Z,15.97
2022-09-06T09:47:35.159Z,16.19
2022-09-06T09:48:37.728Z,16.39
2022-09-06T09:49:40.606Z,16.47
2022-09-06T09:50:43.475Z,16.53
2022-09-06T09:51:46.079Z,16.65
2022-09-06T09:52:48.714Z,16.71
2022-09-06T09:53:51.339Z,16.75
2022-09-06T09:54:53.951Z,16.73
2022-09-06T09:55:56.631Z,16.72
2022-09-06T09:56:59.900Z,16.85
2022-09-06T09:58:02.570Z,16.87
2022-09-06T09:59:05.135Z,16.82
2022-09-06T10:00:08.424Z,16.84
2022-09-06T10:01:11.439Z,16.84
2022-09-06T10:02:14.376Z,16.98
2022-09-06T10:03:17.079Z,17.12
2022-09-06T10:05:24.236Z,17.35
2022-09-06T10:07:32.020Z,17.45
2022-09-06T10:08:34.795Z,17.41
2022-09-06T10:09:37.461Z,17.35
2022-09-06T10:10:40.359Z,17.33
2022-09-06T10:11:43.002Z,17.32
2022-09-06T10:12:45.673Z,17.26
2022-09-06T10:13:48.343Z,17.31
2022-09-06T10:14:51.011Z,17.33
2022-09-06T10:15:54.150Z,17.29
2022-09-06T10:16:57.338Z,17.25
2022-09-06T10:17:59.938Z,17.12
2022-09-06T10:19:02.511Z,16.47
2022-09-06T10:20:05.550Z,16.66
2022-09-06T10:21:08.155Z,16.52
2022-09-06T10:22:10.823Z,16.48
2022-09-06T10:23:13.451Z,16.42
2022-09-06T10:25:20.574Z,16.20
2022-09-06T10:26:24.979Z,16.09
2022-09-06T10:27:27.549Z,16.01
2022-09-06T10:28:30.257Z,15.92
2022-09-06T10:29:32.988Z,15.82
2022-09-06T10:30:35.925Z,15.78
2022-09-06T10:31:38.594Z,15.72
2022-09-06T10:32:41.571Z,15.60
2022-09-06T10:33:44.283Z,15.52
2022-09-06T10:34:46.909Z,15.47
2022-09-06T10:35:49.514Z,15.38
2022-09-06T10:36:52.601Z,15.27
2022-09-06T10:37:55.429Z,15.19
2022-09-06T10:39:02.969Z,15.09
2022-09-06T10:40:03.864Z,15.09
2022-09-06T10:41:06.613Z,15.08
2022-09-06T10:42:09.691Z,15.05
2022-09-06T10:43:12.315Z,15.01
2022-09-06T10:44:14.962Z,15.03
2022-09-06T10:45:17.597Z,15.01
2022-09-06T10:46:20.961Z,15.06
2022-09-06T10:47:23.893Z,15.10
2022-09-06T10:48:26.720Z,15.16
2022-09-06T10:49:29.538Z,15.23
2022-09-06T10:50:32.527Z,15.21
2022-09-06T10:51:35.082Z,15.27
2022-09-06T10:52:37.651Z,15.37
2022-09-06T10:53:40.214Z,15.32
2022-09-06T10:54:42.890Z,15.28
2022-09-06T10:55:47.978Z,15.19
2022-09-06T10:56:50.272Z,15.03
2022-09-06T11:00:01.824Z,15.09
2022-09-06T11:01:04.446Z,15.11
2022-09-06T11:02:07.475Z,15.00
2022-09-06T11:04:15.204Z,15.11
2022-09-06T11:06:25.444Z,15.20
2022-09-06T11:07:27.723Z,15.22
2022-09-06T11:09:34.690Z,15.08
2022-09-06T11:10:37.667Z,15.09
2022-09-06T11:11:40.191Z,15.06
2022-09-06T11:12:43.007Z,14.88
2022-09-06T11:13:46.038Z,14.79
2022-09-06T11:14:48.559Z,14.71
2022-09-06T11:15:51.163Z,14.60
2022-09-06T11:16:54.300Z,14.47
2022-09-06T11:17:56.866Z,14.30
2022-09-06T11:18:59.352Z,14.25
2022-09-06T11:20:02.202Z,14.16
2022-09-06T11:21:04.774Z,14.22
2022-09-06T11:22:07.647Z,14.21
2022-09-06T11:23:10.321Z,14.25
2022-09-06T11:24:13.290Z,14.27
2022-09-06T11:25:15.858Z,14.23
2022-09-06T11:26:19.266Z,14.22
2022-09-06T11:27:21.901Z,14.24
2022-09-06T11:28:24.484Z,14.34
2022-09-06T11:29:27.106Z,14.34
2022-09-06T11:30:30.083Z,14.29
2022-09-06T11:32:37.111Z,14.29
2022-09-06T11:33:40.194Z,14.34
2022-09-06T11:34:43.088Z,14.43
2022-09-06T11:35:45.651Z,14.45
2022-09-06T11:36:48.703Z,14.32
2022-09-06T11:37:51.469Z,14.33
2022-09-06T11:38:53.994Z,14.36
2022-09-06T11:41:01.228Z,14.55
2022-09-06T11:42:04.091Z,14.58
2022-09-06T11:43:06.822Z,14.59
2022-09-06T11:44:09.536Z,14.56
2022-09-06T11:45:12.203Z,14.55
2022-09-06T11:46:19.980Z,14.53
2022-09-06T11:47:20.850Z,14.56
2022-09-06T11:48:23.493Z,14.61
2022-09-06T11:49:26.159Z,14.64
2022-09-06T11:50:28.927Z,14.67
2022-09-06T11:51:31.494Z,14.74
2022-09-06T11:52:34.072Z,14.78
2022-09-06T11:53:36.584Z,14.90
2022-09-06T11:54:39.207Z,15.02
2022-09-06T11:55:41.865Z,15.07
2022-09-06T11:56:44.900Z,15.17
2022-09-06T11:57:47.511Z,15.10
2022-09-06T11:58:50.185Z,15.15
2022-09-06T11:59:52.846Z,15.26
2022-09-06T12:00:55.928Z,15.34
2022-09-06T12:01:58.599Z,15.45
2022-09-06T12:04:07.339Z,15.70
2022-09-06T12:05:10.599Z,15.82
2022-09-06T12:06:14.088Z,15.98
2022-09-06T12:07:16.656Z,16.11
2022-09-06T12:08:19.229Z,16.25
2022-09-06T12:09:21.888Z,16.45
2022-09-06T12:10:25.178Z,16.61
2022-09-06T12:11:30.303Z,16.79
2022-09-06T12:12:32.665Z,17.02
2022-09-06T12:13:35.228Z,17.21
2022-09-06T12:14:37.999Z,17.39
2022-09-06T12:15:40.564Z,17.60
2022-09-06T12:16:43.401Z,17.64
2022-09-06T12:17:46.015Z,17.70
2022-09-06T12:18:48.574Z,17.68
2022-09-06T12:19:51.344Z,17.58
2022-09-06T12:20:54.321Z,17.42
2022-09-06T12:21:57.303Z,17.42
2022-09-06T12:22:59.865Z,17.30
2022-09-06T12:24:02.435Z,17.09
2022-09-06T12:25:05.000Z,16.86
2022-09-06T12:26:08.285Z,16.59
2022-09-06T12:27:11.574Z,16.46
2022-09-06T12:28:14.238Z,16.32
2022-09-06T12:29:16.802Z,16.17
2022-09-06T12:30:20.205Z,16.06
2022-09-06T12:31:22.820Z,15.92
2022-09-06T12:32:25.652Z,15.77
2022-09-06T12:33:28.299Z,15.49
2022-09-06T12:34:30.867Z,15.43
2022-09-06T12:36:38.055Z,15.37
2022-09-06T12:37:40.983Z,15.17
2022-09-06T12:38:43.691Z,15.06
2022-09-06T12:39:46.733Z,14.97
2022-09-06T12:40:49.952Z,14.89
2022-09-06T12:41:52.619Z,14.86
2022-09-06T12:42:55.292Z,14.81
2022-09-06T12:43:57.860Z,14.65
2022-09-06T12:45:00.357Z,14.59
2022-09-06T12:46:03.418Z,14.56
2022-09-06T12:47:06.278Z,14.53
2022-09-06T12:48:08.799Z,14.44
2022-09-06T12:49:11.416Z,14.37
2022-09-06T12:50:14.593Z,14.39
2022-09-06T12:51:17.260Z,14.47
2022-09-06T12:52:19.841Z,14.49
2022-09-06T12:53:23.390Z,14.59
2022-09-06T12:54:26.599Z,14.61
2022-09-06T12:55:29.280Z,14.61
2022-09-06T12:56:32.590Z,14.60
2022-09-06T12:57:35.180Z,14.64
2022-09-06T12:58:37.793Z,14.68
2022-09-06T12:59:40.764Z,14.69
2022-09-06T13:00:43.741Z,14.68
2022-09-06T13:01:46.424Z,14.72
2022-09-06T13:02:49.194Z,14.69
2022-09-06T13:03:51.772Z,14.78
2022-09-06T13:04:54.681Z,14.74
2022-09-06T13:05:57.288Z,14.71
2022-09-06T13:07:00.332Z,14.75
2022-09-06T13:08:03.035Z,14.76
2022-09-06T13:09:06.016Z,14.77
2022-09-06T13:10:09.302Z,14.74
2022-09-06T13:11:11.989Z,14.70
2022-09-06T13:12:15.005Z,14.70
2022-09-06T13:13:17.612Z,14.73
2022-09-06T13:14:20.296Z,14.81
2022-09-06T13:15:22.952Z,14.79
2022-09-06T13:16:26.516Z,14.80
2022-09-06T13:17:29.322Z,14.75
2022-09-06T13:18:33.211Z,14.74
2022-09-06T13:19:35.755Z,14.71
2022-09-06T13:20:38.458Z,14.74
2022-09-06T13:21:41.115Z,14.78
2022-09-06T13:22:43.760Z,14.86
2022-09-06T13:23:46.352Z,14.86
2022-09-06T13:24:48.944Z,14.95
2022-09-06T13:25:51.692Z,15.00
2022-09-06T13:26:56.100Z,15.06
2022-09-06T13:27:58.777Z,15.17
2022-09-06T13:29:01.304Z,15.20
2022-09-06T13:30:04.357Z,15.24
2022-09-06T13:31:07.041Z,15.27
2022-09-06T13:32:09.958Z,15.40
2022-09-06T13:33:12.632Z,15.47
2022-09-06T13:34:15.313Z,15.58
2022-09-06T13:35:17.974Z,15.65
2022-09-06T13:36:21.824Z,15.74
2022-09-06T13:37:24.535Z,15.72
2022-09-06T13:38:27.131Z,15.65
2022-09-06T13:39:29.830Z,15.67
2022-09-06T13:40:35.547Z,15.64
2022-09-06T13:41:37.573Z,15.64
2022-09-06T13:42:40.145Z,15.70
2022-09-06T13:43:43.067Z,15.77
2022-09-06T13:44:45.683Z,15.85
2022-09-06T13:45:48.244Z,16.00
2022-09-06T13:46:51.323Z,16.11
2022-09-06T13:48:03.393Z,16.06
2022-09-06T13:48:58.461Z,15.94
2022-09-06T13:50:01.153Z,15.88
2022-09-06T13:51:04.150Z,15.79
2022-09-06T13:52:06.635Z,15.77
2022-09-06T13:53:09.280Z,15.74
2022-09-06T13:54:11.874Z,15.78
2022-09-06T13:55:14.423Z,15.80
2022-09-06T13:56:18.685Z,15.74
2022-09-06T13:57:24.497Z,15.70
2022-09-06T13:58:26.018Z,15.48
2022-09-06T13:59:28.785Z,15.60
2022-09-06T14:00:32.167Z,15.60
2022-09-06T14:01:35.098Z,15.56
2022-09-06T14:02:38.170Z,15.42
2022-09-06T14:03:41.097Z,15.38
2022-09-06T14:04:43.769Z,15.28
2022-09-06T14:05:46.332Z,15.27
2022-09-06T14:06:49.110Z,15.22
2022-09-06T14:07:51.789Z,15.22
2022-09-06T14:09:06.821Z,15.18
2022-09-06T14:09:58.968Z,15.10
2022-09-06T14:11:01.933Z,15.08